Time;durP1;ratioP1;P1;durP2;ratioP2;P2;SDS_P1;SDS_P2;PMS_P1;PMS_P2;Temp;Humidity;BMP_temperature;BMP_pressure;BME280_temperature;BME280_humidity;BME280_pressure;Samples;Min_cycle;Max_cycle;Signal;HPM_P1;HPM_P2
2021/08/16 00:01:05;;;;;;;3.58;2.53;;;;;;;;;;5092813;28;20044;-79
2021/08/16 00:03:32;;;;;;;9.45;2.75;;;;;;;;;;5092787;28;20036;-79
2021/08/16 00:05:57;;;;;;;7.55;2.83;;;;;;;;;;5094292;28;20012;-80
2021/08/16 00:08:22;;;;;;;6.10;2.53;;;;;;;;;;5108716;28;20028;-80
2021/08/16 00:10:51;;;;;;;6.55;2.40;;;;;;;;;;5092193;28;20036;-79
2021/08/16 00:13:16;;;;;;;6.82;2.20;;;;;;;;;;5088811;28;20037;-79
2021/08/16 00:15:42;;;;;;;10.68;2.95;;;;;;;;;;5073062;28;20044;-80
2021/08/16 00:18:07;;;;;;;4.40;3.05;;;;;;;;;;5072779;28;20044;-80
2021/08/16 00:20:33;;;;;;;9.80;2.63;;;;;;;;;;5072697;28;20041;-80
2021/08/16 00:22:58;;;;;;;5.28;2.63;;;;;;;;;;5073419;28;20035;-80
2021/08/16 00:25:24;;;;;;;10.93;2.67;;;;;;;;;;5108988;28;20085;-79
2021/08/16 00:27:50;;;;;;;4.10;2.25;;;;;;;;;;5113951;28;20031;-80
2021/08/16 00:30:15;;;;;;;5.30;2.45;;;;;;;;;;5129159;28;20066;-80
2021/08/16 00:32:43;;;;;;;8.73;2.70;;;;;;;;;;5113756;28;20039;-79
2021/08/16 00:35:08;;;;;;;10.65;2.65;;;;;;;;;;5093471;28;20042;-80
2021/08/16 00:37:34;;;;;;;8.18;2.70;;;;;;;;;;5093744;28;20056;-80
2021/08/16 00:39:59;;;;;;;6.22;3.13;;;;;;;;;;5092772;28;20474;-79
2021/08/16 00:42:25;;;;;;;6.43;2.63;;;;;;;;;;5110372;28;20454;-80
2021/08/16 00:44:51;;;;;;;9.27;2.60;;;;;;;;;;5093096;28;20024;-79
2021/08/16 00:47:17;;;;;;;4.75;2.40;;;;;;;;;;5105328;28;20024;-79
2021/08/16 00:49:42;;;;;;;5.72;2.40;;;;;;;;;;5076734;28;20040;-79
2021/08/16 00:52:08;;;;;;;8.48;2.17;;;;;;;;;;5092368;28;20062;-79
2021/08/16 00:54:37;;;;;;;5.88;2.55;;;;;;;;;;5074694;28;20111;-79
2021/08/16 00:57:04;;;;;;;14.57;2.40;;;;;;;;;;5074855;28;20032;-79
2021/08/16 00:59:31;;;;;;;8.38;2.40;;;;;;;;;;5074774;28;20037;-79
2021/08/16 01:01:56;;;;;;;7.03;2.75;;;;;;;;;;5075481;28;20028;-79
2021/08/16 01:04:22;;;;;;;4.32;2.55;;;;;;;;;;5075865;28;20048;-79
2021/08/16 01:06:48;;;;;;;8.57;2.45;;;;;;;;;;5074459;28;20041;-80
2021/08/16 01:09:16;;;;;;;7.05;2.53;;;;;;;;;;5078909;28;20104;-80
2021/08/16 01:11:41;;;;;;;6.57;2.63;;;;;;;;;;5095509;28;20032;-80
2021/08/16 01:14:07;;;;;;;9.70;3.03;;;;;;;;;;5078556;28;20036;-79
2021/08/16 01:16:32;;;;;;;6.05;2.70;;;;;;;;;;5077507;28;20052;-80
2021/08/16 01:18:58;;;;;;;7.38;2.50;;;;;;;;;;5076789;28;20036;-80
2021/08/16 01:21:24;;;;;;;7.53;2.30;;;;;;;;;;5076149;28;20066;-80
2021/08/16 01:23:50;;;;;;;8.70;2.88;;;;;;;;;;5102630;28;20099;-80
2021/08/16 01:26:16;;;;;;;6.22;2.78;;;;;;;;;;5096400;28;20078;-79
2021/08/16 01:28:42;;;;;;;8.77;2.65;;;;;;;;;;5095400;28;20113;-80
2021/08/16 01:31:09;;;;;;;8.80;2.83;;;;;;;;;;5096472;28;20044;-80
2021/08/16 01:33:37;;;;;;;7.25;2.88;;;;;;;;;;5105337;28;20048;-81
2021/08/16 01:36:02;;;;;;;6.43;3.25;;;;;;;;;;5117892;28;20042;-81
2021/08/16 01:38:34;;;;;;;8.07;3.38;;;;;;;;;;5133390;28;20103;-80
2021/08/16 01:41:00;;;;;;;11.15;2.67;;;;;;;;;;5117618;28;20031;-80
2021/08/16 01:43:25;;;;;;;6.40;2.40;;;;;;;;;;5116725;28;20069;-80
2021/08/16 01:45:54;;;;;;;13.35;3.15;;;;;;;;;;5116239;28;20035;-80
2021/08/16 01:48:19;;;;;;;8.23;3.08;;;;;;;;;;5116246;28;20035;-80
2021/08/16 01:50:46;;;;;;;12.05;3.22;;;;;;;;;;5116512;28;20056;-80
2021/08/16 01:53:12;;;;;;;17.50;3.15;;;;;;;;;;5106878;28;20031;-80
2021/08/16 01:55:38;;;;;;;8.57;3.00;;;;;;;;;;5094997;28;20034;-80
2021/08/16 01:58:04;;;;;;;8.15;2.80;;;;;;;;;;5110302;28;20040;-80
2021/08/16 02:00:30;;;;;;;7.43;2.70;;;;;;;;;;5095444;28;20043;-80
2021/08/16 02:02:56;;;;;;;3.80;2.58;;;;;;;;;;5095452;28;20401;-80
2021/08/16 02:05:21;;;;;;;15.20;2.80;;;;;;;;;;5093713;28;20055;-80
2021/08/16 02:07:46;;;;;;;7.95;2.80;;;;;;;;;;5111519;28;20032;-81
2021/08/16 02:10:15;;;;;;;7.82;2.70;;;;;;;;;;5114401;28;20103;-80
2021/08/16 02:12:40;;;;;;;7.15;2.70;;;;;;;;;;5114703;28;20051;-80
2021/08/16 02:15:07;;;;;;;5.63;3.00;;;;;;;;;;5114572;28;20465;-80
2021/08/16 02:17:33;;;;;;;7.10;2.80;;;;;;;;;;5096231;28;20032;-80
2021/08/16 02:19:58;;;;;;;5.70;3.00;;;;;;;;;;5096378;28;20028;-79
2021/08/16 02:22:24;;;;;;;6.63;2.60;;;;;;;;;;5113090;28;20035;-80
2021/08/16 02:24:49;;;;;;;13.77;3.10;;;;;;;;;;5096070;28;20040;-79
2021/08/16 02:27:15;;;;;;;4.97;2.70;;;;;;;;;;5112219;28;20031;-79
2021/08/16 02:29:40;;;;;;;6.38;2.80;;;;;;;;;;5095550;28;20039;-80
2021/08/16 02:32:06;;;;;;;3.58;1.95;;;;;;;;;;5095570;28;20036;-80
2021/08/16 02:34:32;;;;;;;9.57;2.70;;;;;;;;;;5111576;28;20047;-79
2021/08/16 02:36:57;;;;;;;4.25;2.28;;;;;;;;;;5111992;28;20036;-79
2021/08/16 02:39:23;;;;;;;7.57;2.35;;;;;;;;;;5112209;28;20066;-79
2021/08/16 02:41:48;;;;;;;3.67;2.38;;;;;;;;;;5094383;28;20039;-80
2021/08/16 02:44:14;;;;;;;4.32;2.08;;;;;;;;;;5094982;28;20040;-80
2021/08/16 02:46:39;;;;;;;6.90;2.50;;;;;;;;;;5093523;28;20096;-80
2021/08/16 02:49:04;;;;;;;5.60;2.92;;;;;;;;;;5113939;28;20020;-79
2021/08/16 02:51:30;;;;;;;8.27;2.47;;;;;;;;;;5094403;28;20095;-80
2021/08/16 02:53:56;;;;;;;6.38;2.60;;;;;;;;;;5111999;28;20042;-81
2021/08/16 02:56:21;;;;;;;6.35;2.45;;;;;;;;;;5093553;28;20047;-79
2021/08/16 02:58:47;;;;;;;10.45;2.60;;;;;;;;;;5096772;28;20032;-81
2021/08/16 03:01:12;;;;;;;9.73;3.25;;;;;;;;;;5113255;28;20065;-80
2021/08/16 03:03:38;;;;;;;12.48;3.28;;;;;;;;;;5113063;28;20036;-80
2021/08/16 03:06:04;;;;;;;5.72;2.80;;;;;;;;;;5113443;28;20024;-80
2021/08/16 03:08:31;;;;;;;4.90;3.20;;;;;;;;;;5112461;28;20028;-79
2021/08/16 03:10:57;;;;;;;9.05;2.67;;;;;;;;;;5095831;28;20055;-80
2021/08/16 03:13:22;;;;;;;12.48;4.22;;;;;;;;;;5113031;28;20043;-80
2021/08/16 03:15:47;;;;;;;6.45;2.70;;;;;;;;;;5095920;28;20371;-80
2021/08/16 03:18:13;;;;;;;13.63;2.90;;;;;;;;;;5112401;28;20043;-80
2021/08/16 03:20:40;;;;;;;9.15;2.50;;;;;;;;;;5112541;28;20039;-79
2021/08/16 03:23:06;;;;;;;7.18;2.50;;;;;;;;;;5112523;28;20039;-79
2021/08/16 03:25:32;;;;;;;7.07;3.35;;;;;;;;;;5080601;28;20037;-79
2021/08/16 03:27:57;;;;;;;7.93;2.90;;;;;;;;;;5074913;28;20050;-80
2021/08/16 03:30:25;;;;;;;5.75;2.70;;;;;;;;;;5074681;28;20425;-80
2021/08/16 03:32:50;;;;;;;4.00;2.55;;;;;;;;;;5074257;28;20028;-80
2021/08/16 03:35:17;;;;;;;12.70;2.95;;;;;;;;;;5075009;28;20054;-79
2021/08/16 03:37:43;;;;;;;4.95;2.97;;;;;;;;;;5073910;28;20079;-80
2021/08/16 03:40:09;;;;;;;5.18;2.70;;;;;;;;;;5073242;28;20040;-80
2021/08/16 03:42:37;;;;;;;5.50;2.97;;;;;;;;;;5075942;28;20535;-80
2021/08/16 03:45:06;;;;;;;9.88;2.95;;;;;;;;;;5075356;28;20043;-80
2021/08/16 03:47:32;;;;;;;8.95;2.55;;;;;;;;;;5075798;28;20100;-80
2021/08/16 03:49:57;;;;;;;4.55;2.53;;;;;;;;;;5075393;28;20020;-79
2021/08/16 03:52:23;;;;;;;5.75;2.40;;;;;;;;;;5091814;28;20033;-80
2021/08/16 03:54:48;;;;;;;6.07;2.92;;;;;;;;;;5106981;28;20042;-79
2021/08/16 03:57:15;;;;;;;6.35;2.50;;;;;;;;;;5131915;28;20058;-80
2021/08/16 03:59:40;;;;;;;5.63;2.47;;;;;;;;;;5114255;28;20118;-80
2021/08/16 04:02:05;;;;;;;4.82;2.30;;;;;;;;;;5113663;28;20028;-79
2021/08/16 04:04:31;;;;;;;9.27;3.10;;;;;;;;;;5131670;28;20039;-80
2021/08/16 04:06:56;;;;;;;4.32;2.22;;;;;;;;;;5115716;28;20489;-80
2021/08/16 04:09:21;;;;;;;5.25;2.50;;;;;;;;;;5132180;28;20087;-79
2021/08/16 04:11:47;;;;;;;8.38;2.83;;;;;;;;;;5131526;28;20051;-79
2021/08/16 04:14:12;;;;;;;10.10;3.15;;;;;;;;;;5114727;28;20069;-80
2021/08/16 04:16:37;;;;;;;10.50;2.72;;;;;;;;;;5114662;28;20039;-80
2021/08/16 04:19:04;;;;;;;10.20;3.00;;;;;;;;;;5114327;28;20032;-80
2021/08/16 04:21:30;;;;;;;12.13;2.78;;;;;;;;;;5136303;28;20039;-79
2021/08/16 04:23:56;;;;;;;5.38;3.05;;;;;;;;;;5106145;28;20028;-79
2021/08/16 04:26:21;;;;;;;6.57;2.53;;;;;;;;;;5095806;28;20033;-80
2021/08/16 04:28:46;;;;;;;8.63;3.03;;;;;;;;;;5093652;28;20028;-80
2021/08/16 04:31:12;;;;;;;4.95;2.88;;;;;;;;;;5078168;28;20071;-79
2021/08/16 04:33:38;;;;;;;5.13;2.70;;;;;;;;;;5077245;28;20048;-79
2021/08/16 04:36:04;;;;;;;4.10;2.45;;;;;;;;;;5078787;28;20033;-80
2021/08/16 04:38:30;;;;;;;7.82;3.00;;;;;;;;;;5076287;28;20016;-80
2021/08/16 04:40:56;;;;;;;8.50;2.95;;;;;;;;;;5077890;28;20107;-80
2021/08/16 04:43:24;;;;;;;6.18;3.33;;;;;;;;;;5080564;28;20036;-81
2021/08/16 04:45:49;;;;;;;9.90;3.13;;;;;;;;;;5079588;28;20078;-80
2021/08/16 04:48:15;;;;;;;6.22;2.97;;;;;;;;;;5079032;28;20036;-80
2021/08/16 04:50:41;;;;;;;9.25;3.33;;;;;;;;;;5090360;28;20047;-80
2021/08/16 04:53:07;;;;;;;14.95;3.53;;;;;;;;;;5099790;28;20071;-80
2021/08/16 04:55:32;;;;;;;6.85;3.67;;;;;;;;;;5098428;28;20040;-81
2021/08/16 04:57:58;;;;;;;8.52;3.17;;;;;;;;;;5115733;28;20045;-80
2021/08/16 05:00:25;;;;;;;11.10;3.33;;;;;;;;;;5114750;28;20474;-80
2021/08/16 05:02:55;;;;;;;7.30;2.90;;;;;;;;;;5115019;28;20039;-81
2021/08/16 05:05:25;;;;;;;8.88;3.38;;;;;;;;;;5098718;28;20039;-80
2021/08/16 05:07:55;;;;;;;7.88;3.08;;;;;;;;;;5098994;28;20028;-80
2021/08/16 05:10:21;;;;;;;8.80;3.85;;;;;;;;;;5114446;28;20039;-80
2021/08/16 05:12:51;;;;;;;16.48;6.20;;;;;;;;;;5096556;28;20040;-80
2021/08/16 05:15:17;;;;;;;18.38;8.63;;;;;;;;;;5098716;28;20032;-80
2021/08/16 05:17:43;;;;;;;18.70;9.52;;;;;;;;;;5095728;28;20043;-79
2021/08/16 05:20:10;;;;;;;23.00;9.48;;;;;;;;;;5121054;28;20043;-80
2021/08/16 05:22:39;;;;;;;20.23;8.45;;;;;;;;;;5115299;28;20040;-80
2021/08/16 05:25:06;;;;;;;12.45;7.00;;;;;;;;;;5097603;28;20046;-80
2021/08/16 05:27:32;;;;;;;11.95;6.85;;;;;;;;;;5094315;28;20042;-80
2021/08/16 05:29:57;;;;;;;16.17;7.32;;;;;;;;;;5111657;28;20091;-80
2021/08/16 05:32:23;;;;;;;11.38;6.13;;;;;;;;;;5104848;28;20028;-80
2021/08/16 05:34:51;;;;;;;10.32;5.35;;;;;;;;;;5090149;28;20131;-81
2021/08/16 05:37:16;;;;;;;9.18;4.63;;;;;;;;;;5076125;28;20033;-81
2021/08/16 05:39:42;;;;;;;7.18;4.00;;;;;;;;;;5094805;28;20069;-81
2021/08/16 05:42:07;;;;;;;10.35;3.97;;;;;;;;;;5077559;28;20062;-81
2021/08/16 05:44:33;;;;;;;10.32;3.63;;;;;;;;;;5078349;28;20040;-81
2021/08/16 05:47:02;;;;;;;9.55;3.78;;;;;;;;;;5093980;28;20039;-81
2021/08/16 05:49:27;;;;;;;13.52;3.50;;;;;;;;;;5090501;28;20033;-81
2021/08/16 05:51:53;;;;;;;9.43;3.50;;;;;;;;;;5074758;28;20047;-81
2021/08/16 05:54:20;;;;;;;13.23;4.93;;;;;;;;;;5086311;28;20057;-81
2021/08/16 05:56:45;;;;;;;9.25;4.60;;;;;;;;;;5097075;28;20028;-80
2021/08/16 05:59:11;;;;;;;10.13;3.75;;;;;;;;;;5096806;28;20471;-80
2021/08/16 06:01:39;;;;;;;6.13;3.70;;;;;;;;;;5096405;28;20039;-80
2021/08/16 06:04:06;;;;;;;7.70;3.92;;;;;;;;;;5095831;28;20069;-81
2021/08/16 06:06:32;;;;;;;8.32;4.00;;;;;;;;;;5097035;28;20047;-81
2021/08/16 06:08:58;;;;;;;9.55;4.00;;;;;;;;;;5112968;28;20032;-80
2021/08/16 06:11:24;;;;;;;16.88;6.20;;;;;;;;;;5096180;28;20023;-80
2021/08/16 06:13:50;;;;;;;13.10;3.80;;;;;;;;;;5111081;28;20028;-81
2021/08/16 06:16:16;;;;;;;7.75;3.60;;;;;;;;;;5116297;28;20035;-80
2021/08/16 06:18:42;;;;;;;11.75;3.65;;;;;;;;;;5115986;28;20081;-81
2021/08/16 06:21:08;;;;;;;19.20;4.30;;;;;;;;;;5116392;28;20482;-81
2021/08/16 06:23:34;;;;;;;18.52;4.45;;;;;;;;;;5116886;28;20035;-81
2021/08/16 06:26:01;;;;;;;15.02;3.45;;;;;;;;;;5123485;28;20032;-80
2021/08/16 06:28:26;;;;;;;7.25;2.80;;;;;;;;;;5094803;28;20020;-80
2021/08/16 06:30:52;;;;;;;10.32;3.70;;;;;;;;;;5095218;28;20058;-80
2021/08/16 06:33:17;;;;;;;8.45;3.45;;;;;;;;;;5095258;28;20055;-81
2021/08/16 06:35:43;;;;;;;12.13;3.17;;;;;;;;;;5111417;28;20040;-81
2021/08/16 06:38:20;;;;;;;7.57;2.97;;;;;;;;;;5111216;28;20032;-80
2021/08/16 06:40:45;;;;;;;13.85;4.10;;;;;;;;;;5094538;28;20127;-80
2021/08/16 06:43:11;;;;;;;11.93;2.95;;;;;;;;;;5094390;28;20035;-81
2021/08/16 06:45:36;;;;;;;12.48;3.47;;;;;;;;;;5113038;28;20027;-80
2021/08/16 06:48:03;;;;;;;11.05;3.17;;;;;;;;;;5094235;28;20059;-81
2021/08/16 06:50:28;;;;;;;9.18;3.20;;;;;;;;;;5109978;28;20130;-80
2021/08/16 06:52:54;;;;;;;11.02;3.03;;;;;;;;;;5097185;28;20043;-81
2021/08/16 06:55:19;;;;;;;9.05;3.20;;;;;;;;;;5097197;28;20036;-81
2021/08/16 06:57:44;;;;;;;12.07;3.78;;;;;;;;;;5095822;28;20067;-81
2021/08/16 07:00:10;;;;;;;9.23;3.08;;;;;;;;;;5113187;28;20042;-81
2021/08/16 07:02:36;;;;;;;10.48;3.17;;;;;;;;;;5095255;28;20039;-82
2021/08/16 07:05:01;;;;;;;11.07;3.13;;;;;;;;;;5112471;28;20042;-82
2021/08/16 07:07:27;;;;;;;11.27;3.80;;;;;;;;;;5112718;28;20059;-81
2021/08/16 07:09:52;;;;;;;13.10;4.03;;;;;;;;;;5095693;28;20040;-81
2021/08/16 07:12:17;;;;;;;12.80;3.00;;;;;;;;;;5094510;28;20032;-81
2021/08/16 07:14:43;;;;;;;12.73;3.05;;;;;;;;;;5110891;28;20043;-80
2021/08/16 07:17:08;;;;;;;6.72;3.00;;;;;;;;;;5091330;28;20039;-81
2021/08/16 07:19:35;;;;;;;11.93;3.28;;;;;;;;;;5111718;28;20061;-82
2021/08/16 07:22:00;;;;;;;10.13;3.33;;;;;;;;;;5113832;28;20047;-81
2021/08/16 07:24:25;;;;;;;9.18;3.28;;;;;;;;;;5102798;28;20036;-81
2021/08/16 07:26:52;;;;;;;7.18;2.60;;;;;;;;;;5093550;28;20061;-81
2021/08/16 07:29:17;;;;;;;10.30;3.85;;;;;;;;;;5108792;28;20042;-81
2021/08/16 07:31:43;;;;;;;10.82;3.38;;;;;;;;;;5101714;28;20067;-78
2021/08/16 07:34:08;;;;;;;16.90;3.53;;;;;;;;;;5098882;28;20052;-78
2021/08/16 07:36:34;;;;;;;12.85;3.55;;;;;;;;;;5098215;28;20387;-78
2021/08/16 07:39:00;;;;;;;20.17;4.00;;;;;;;;;;5081321;28;20492;-78
2021/08/16 07:41:25;;;;;;;11.45;4.03;;;;;;;;;;5081865;28;20054;-78
2021/08/16 07:43:51;;;;;;;14.25;4.07;;;;;;;;;;5083932;28;20040;-79
2021/08/16 07:46:16;;;;;;;10.73;4.00;;;;;;;;;;5100563;28;20036;-79
2021/08/16 07:48:41;;;;;;;8.98;3.70;;;;;;;;;;5081958;28;20101;-78
2021/08/16 07:51:07;;;;;;;11.57;4.00;;;;;;;;;;5083770;28;20058;-78
2021/08/16 07:53:32;;;;;;;15.95;3.60;;;;;;;;;;5097654;28;20759;-81
2021/08/16 07:55:57;;;;;;;10.38;3.78;;;;;;;;;;5084981;28;20485;-79
2021/08/16 07:58:23;;;;;;;9.55;4.25;;;;;;;;;;5069784;28;20037;-78
2021/08/16 08:00:49;;;;;;;8.35;3.85;;;;;;;;;;5067941;28;20043;-79
2021/08/16 08:03:14;;;;;;;10.25;4.05;;;;;;;;;;5068940;28;20040;-79
2021/08/16 08:05:40;;;;;;;19.85;4.15;;;;;;;;;;5070704;28;20028;-79
2021/08/16 08:08:05;;;;;;;14.60;4.43;;;;;;;;;;5070433;28;20471;-79
2021/08/16 08:10:32;;;;;;;10.48;4.03;;;;;;;;;;5070037;28;20032;-79
2021/08/16 08:12:57;;;;;;;10.02;3.97;;;;;;;;;;5081042;28;20040;-81
2021/08/16 08:15:23;;;;;;;15.23;4.38;;;;;;;;;;5097166;28;20094;-81
2021/08/16 08:17:50;;;;;;;8.60;4.25;;;;;;;;;;5096817;28;20028;-79
2021/08/16 08:20:15;;;;;;;10.07;4.32;;;;;;;;;;5080101;28;20068;-80
2021/08/16 08:22:41;;;;;;;12.95;4.07;;;;;;;;;;5099373;28;20129;-80
2021/08/16 08:25:07;;;;;;;10.77;4.32;;;;;;;;;;5112423;28;20089;-80
2021/08/16 08:27:33;;;;;;;14.13;5.10;;;;;;;;;;5110656;27;20032;-79
2021/08/16 08:29:58;;;;;;;11.63;4.10;;;;;;;;;;5097247;28;20034;-79
2021/08/16 08:32:24;;;;;;;7.10;4.28;;;;;;;;;;5096826;28;20112;-79
2021/08/16 08:34:49;;;;;;;12.18;5.47;;;;;;;;;;5113739;28;20044;-79
2021/08/16 08:37:15;;;;;;;9.68;4.47;;;;;;;;;;5095469;28;20034;-81
2021/08/16 08:39:42;;;;;;;12.45;4.20;;;;;;;;;;5113957;28;20039;-79
2021/08/16 08:42:08;;;;;;;13.55;4.57;;;;;;;;;;5113669;28;20085;-79
2021/08/16 08:44:35;;;;;;;16.20;4.10;;;;;;;;;;5111152;28;20048;-80
2021/08/16 08:47:01;;;;;;;12.55;4.15;;;;;;;;;;5112535;28;20028;-80
2021/08/16 08:49:26;;;;;;;12.68;4.75;;;;;;;;;;5113667;28;20065;-81
2021/08/16 08:51:52;;;;;;;13.02;4.47;;;;;;;;;;5098617;28;20028;-79
2021/08/16 08:54:23;;;;;;;10.10;4.45;;;;;;;;;;5121418;28;20067;-80
2021/08/16 08:56:50;;;;;;;7.78;4.40;;;;;;;;;;5132653;28;20532;-79
2021/08/16 08:59:15;;;;;;;8.48;4.32;;;;;;;;;;5137600;28;20122;-80
2021/08/16 09:01:52;;;;;;;11.50;4.65;;;;;;;;;;5138477;28;20040;-80
2021/08/16 09:04:18;;;;;;;9.07;4.60;;;;;;;;;;5138178;28;20032;-80
2021/08/16 09:06:45;;;;;;;10.40;4.65;;;;;;;;;;5134748;27;20029;-80
2021/08/16 09:09:10;;;;;;;10.77;4.75;;;;;;;;;;5134296;28;20083;-81
2021/08/16 09:11:36;;;;;;;15.23;4.53;;;;;;;;;;5136997;28;20042;-80
2021/08/16 09:14:04;;;;;;;11.48;5.28;;;;;;;;;;5136500;28;20039;-80
2021/08/16 09:16:31;;;;;;;18.27;7.10;;;;;;;;;;5136473;28;20039;-80
2021/08/16 09:18:57;;;;;;;8.68;4.78;;;;;;;;;;5118742;28;20086;-80
2021/08/16 09:21:29;;;;;;;7.20;3.92;;;;;;;;;;5134714;28;20036;-80
2021/08/16 09:23:55;;;;;;;11.07;4.82;;;;;;;;;;5109111;28;20044;-81
2021/08/16 09:26:29;;;;;;;9.60;4.95;;;;;;;;;;5087189;28;20032;-79
2021/08/16 09:28:55;;;;;;;10.40;4.70;;;;;;;;;;5083670;28;20060;-80
2021/08/16 09:31:24;;;;;;;17.13;5.25;;;;;;;;;;5087626;28;20043;-79
2021/08/16 09:33:57;;;;;;;12.98;5.10;;;;;;;;;;5095067;28;20104;-79
2021/08/16 09:36:39;;;;;;;13.90;5.40;;;;;;;;;;5077501;28;20047;-80
2021/08/16 09:39:17;;;;;;;9.60;5.00;;;;;;;;;;5093985;28;20040;-81
2021/08/16 09:41:43;;;;;;;11.38;5.10;;;;;;;;;;5069824;28;20040;-80
2021/08/16 09:44:10;;;;;;;13.50;4.20;;;;;;;;;;5094163;28;20398;-79
2021/08/16 09:46:36;;;;;;;11.25;4.68;;;;;;;;;;5077430;28;20036;-80
2021/08/16 09:49:03;;;;;;;8.30;4.30;;;;;;;;;;5092878;28;20037;-80
2021/08/16 09:51:30;;;;;;;8.07;4.32;;;;;;;;;;5093710;28;20032;-80
2021/08/16 09:53:57;;;;;;;9.52;3.72;;;;;;;;;;5082170;28;20106;-79
2021/08/16 09:56:23;;;;;;;7.93;3.92;;;;;;;;;;5110780;28;20066;-79
2021/08/16 09:58:49;;;;;;;8.18;3.80;;;;;;;;;;5110033;28;20040;-80
2021/08/16 10:01:15;;;;;;;10.68;3.83;;;;;;;;;;5112594;28;20038;-80
2021/08/16 10:03:41;;;;;;;9.13;3.65;;;;;;;;;;5111347;28;20038;-80
2021/08/16 10:06:08;;;;;;;12.32;3.88;;;;;;;;;;5110576;28;20031;-80
2021/08/16 10:08:49;;;;;;;7.93;2.92;;;;;;;;;;5093071;28;20071;-80
2021/08/16 10:11:16;;;;;;;5.70;2.83;;;;;;;;;;5092257;28;20032;-81
2021/08/16 10:13:42;;;;;;;10.77;3.50;;;;;;;;;;5112592;28;20055;-81
2021/08/16 10:16:13;;;;;;;7.15;3.40;;;;;;;;;;5112341;28;20058;-80
2021/08/16 10:18:53;;;;;;;5.35;2.80;;;;;;;;;;5113941;28;20062;-81
2021/08/16 10:21:23;;;;;;;6.22;3.53;;;;;;;;;;5112657;28;20513;-80
2021/08/16 10:23:54;;;;;;;6.45;3.45;;;;;;;;;;5111304;28;20032;-80
2021/08/16 10:26:23;;;;;;;4.68;2.55;;;;;;;;;;5113074;28;20136;-80
2021/08/16 10:28:57;;;;;;;8.23;3.28;;;;;;;;;;5112433;28;20028;-80
2021/08/16 10:31:30;;;;;;;5.75;2.42;;;;;;;;;;5112459;28;20050;-80
2021/08/16 10:33:56;;;;;;;7.47;2.50;;;;;;;;;;5094399;28;20493;-80
2021/08/16 10:36:23;;;;;;;7.18;2.83;;;;;;;;;;5112760;28;20032;-80
2021/08/16 10:38:50;;;;;;;9.10;2.28;;;;;;;;;;5109730;28;20493;-80
2021/08/16 10:41:42;;;;;;;9.23;2.30;;;;;;;;;;5109309;28;20032;-80
2021/08/16 10:44:15;;;;;;;5.05;2.38;;;;;;;;;;5108027;28;20069;-80
2021/08/16 10:46:40;;;;;;;5.00;2.22;;;;;;;;;;5092551;28;20127;-80
2021/08/16 10:49:10;;;;;;;4.28;2.25;;;;;;;;;;5096472;28;20038;-81
2021/08/16 10:51:41;;;;;;;4.53;2.00;;;;;;;;;;5094869;28;20089;-80
2021/08/16 10:54:07;;;;;;;8.98;1.92;;;;;;;;;;5110234;28;20101;-81
2021/08/16 10:56:33;;;;;;;4.40;1.90;;;;;;;;;;5093842;28;20040;-82
2021/08/16 10:58:59;;;;;;;4.03;2.00;;;;;;;;;;5111730;28;20036;-80
2021/08/16 11:01:30;;;;;;;4.35;2.00;;;;;;;;;;5110512;28;20091;-81
2021/08/16 11:03:57;;;;;;;5.55;2.00;;;;;;;;;;5111191;28;20039;-80
2021/08/16 11:06:23;;;;;;;5.03;2.05;;;;;;;;;;5109796;28;20020;-80
2021/08/16 11:08:55;;;;;;;5.35;2.25;;;;;;;;;;5110113;28;20032;-80
2021/08/16 11:11:20;;;;;;;11.00;2.25;;;;;;;;;;5110517;28;20024;-80
2021/08/16 11:13:45;;;;;;;7.88;2.33;;;;;;;;;;5110292;28;20072;-80
2021/08/16 11:16:10;;;;;;;7.65;1.75;;;;;;;;;;5110019;28;20039;-80
2021/08/16 11:18:36;;;;;;;5.78;2.22;;;;;;;;;;5092082;28;20043;-80
2021/08/16 11:21:06;;;;;;;6.90;1.88;;;;;;;;;;5092786;28;20170;-81
2021/08/16 11:23:32;;;;;;;8.80;2.28;;;;;;;;;;5091495;28;20516;-80
2021/08/16 11:25:59;;;;;;;10.13;2.13;;;;;;;;;;5108864;28;20031;-80
2021/08/16 11:28:29;;;;;;;7.07;1.90;;;;;;;;;;5110153;28;20058;-80
2021/08/16 11:31:06;;;;;;;11.35;2.03;;;;;;;;;;5114834;28;20115;-80
2021/08/16 11:33:32;;;;;;;7.63;2.30;;;;;;;;;;5126029;28;20059;-79
2021/08/16 11:36:12;;;;;;;8.00;2.30;;;;;;;;;;5126254;28;20405;-80
2021/08/16 11:38:41;;;;;;;12.20;2.10;;;;;;;;;;5129347;28;20050;-80
2021/08/16 11:41:13;;;;;;;6.05;2.03;;;;;;;;;;5109544;28;20039;-80
2021/08/16 11:43:38;;;;;;;5.18;2.08;;;;;;;;;;5127209;28;20036;-80
2021/08/16 11:46:14;;;;;;;5.22;1.80;;;;;;;;;;5109348;28;20065;-80
2021/08/16 11:48:49;;;;;;;7.63;2.38;;;;;;;;;;5125707;28;20056;-80
2021/08/16 11:51:15;;;;;;;12.13;1.70;;;;;;;;;;5108791;28;20035;-80
2021/08/16 11:53:42;;;;;;;4.25;2.03;;;;;;;;;;5123407;28;20035;-79
2021/08/16 11:56:08;;;;;;;4.57;2.30;;;;;;;;;;5085684;28;20063;-80
2021/08/16 11:58:38;;;;;;;9.75;2.20;;;;;;;;;;5085463;28;20036;-80
2021/08/16 12:01:05;;;;;;;6.50;2.05;;;;;;;;;;5084560;28;20089;-80
2021/08/16 12:03:32;;;;;;;9.35;1.95;;;;;;;;;;5085648;28;20039;-80
2021/08/16 12:05:58;;;;;;;8.98;2.00;;;;;;;;;;5086824;28;20044;-81
2021/08/16 12:08:23;;;;;;;7.65;2.55;;;;;;;;;;5105697;28;20028;-80
2021/08/16 12:10:48;;;;;;;8.18;2.33;;;;;;;;;;5089080;28;20032;-80
2021/08/16 12:13:14;;;;;;;4.55;1.98;;;;;;;;;;5105149;28;20036;-80
2021/08/16 12:15:41;;;;;;;4.78;1.85;;;;;;;;;;5088498;28;20036;-80
2021/08/16 12:18:07;;;;;;;10.07;2.15;;;;;;;;;;5107982;28;20036;-80
2021/08/16 12:20:44;;;;;;;16.67;2.00;;;;;;;;;;5108713;28;20043;-81
2021/08/16 12:23:10;;;;;;;6.53;2.30;;;;;;;;;;5111011;28;20028;-81
2021/08/16 12:25:47;;;;;;;4.40;1.85;;;;;;;;;;5108811;28;20036;-80
2021/08/16 12:28:13;;;;;;;9.38;1.70;;;;;;;;;;5092986;28;20101;-80
2021/08/16 12:30:38;;;;;;;6.80;2.17;;;;;;;;;;5109808;28;20028;-80
2021/08/16 12:33:11;;;;;;;6.10;2.10;;;;;;;;;;5110152;28;20074;-80
2021/08/16 12:35:38;;;;;;;9.25;2.38;;;;;;;;;;5108858;28;20039;-80
2021/08/16 12:38:05;;;;;;;4.18;1.88;;;;;;;;;;5109538;28;20032;-80
2021/08/16 12:40:31;;;;;;;8.73;2.25;;;;;;;;;;5109287;28;20039;-80
2021/08/16 12:42:59;;;;;;;7.10;1.60;;;;;;;;;;5111516;28;20031;-80
2021/08/16 12:45:25;;;;;;;12.65;1.90;;;;;;;;;;5102814;28;20126;-81
2021/08/16 12:48:05;;;;;;;10.85;1.60;;;;;;;;;;5085919;28;20024;-80
2021/08/16 12:50:33;;;;;;;6.28;1.35;;;;;;;;;;5092940;28;20036;-80
2021/08/16 12:53:00;;;;;;;3.13;1.00;;;;;;;;;;5079856;28;20037;-79
2021/08/16 12:55:26;;;;;;;2.10;0.80;;;;;;;;;;5080044;28;20464;-78
2021/08/16 12:57:52;;;;;;;2.00;0.82;;;;;;;;;;5097640;28;20562;-78
2021/08/16 13:00:17;;;;;;;5.55;0.70;;;;;;;;;;5099075;28;20038;-79
2021/08/16 13:02:45;;;;;;;5.10;0.60;;;;;;;;;;5093551;28;20044;-79
2021/08/16 13:05:10;;;;;;;3.35;0.98;;;;;;;;;;5080105;28;20032;-79
2021/08/16 13:07:36;;;;;;;5.75;1.02;;;;;;;;;;5062539;28;20456;-78
2021/08/16 13:10:03;;;;;;;1.92;1.20;;;;;;;;;;5062069;28;20044;-78
2021/08/16 13:12:33;;;;;;;2.90;1.30;;;;;;;;;;5078168;28;20032;-78
2021/08/16 13:14:59;;;;;;;2.25;1.00;;;;;;;;;;5078950;28;20059;-79
2021/08/16 13:17:25;;;;;;;1.38;1.23;;;;;;;;;;5060599;28;20479;-78
2021/08/16 13:19:51;;;;;;;2.65;1.38;;;;;;;;;;5061404;28;20038;-78
2021/08/16 13:22:16;;;;;;;3.17;1.20;;;;;;;;;;5060989;28;20060;-78
2021/08/16 13:24:42;;;;;;;3.50;1.58;;;;;;;;;;5090841;28;20032;-78
2021/08/16 13:27:07;;;;;;;2.65;1.30;;;;;;;;;;5099171;28;20085;-78
2021/08/16 13:29:33;;;;;;;2.03;1.10;;;;;;;;;;5097430;28;20050;-78
2021/08/16 13:31:59;;;;;;;2.92;1.80;;;;;;;;;;5101612;28;20036;-78
2021/08/16 13:34:24;;;;;;;4.85;1.85;;;;;;;;;;5101635;28;20054;-78
2021/08/16 13:36:52;;;;;;;3.33;1.80;;;;;;;;;;5118602;28;20035;-78
2021/08/16 13:39:18;;;;;;;2.75;1.58;;;;;;;;;;5100732;28;20040;-78
2021/08/16 13:41:43;;;;;;;6.32;2.03;;;;;;;;;;5060499;28;20024;-78
2021/08/16 13:44:09;;;;;;;6.30;2.33;;;;;;;;;;5060787;28;20055;-78
2021/08/16 13:46:35;;;;;;;4.13;2.15;;;;;;;;;;5077669;28;20043;-78
2021/08/16 13:49:00;;;;;;;6.38;2.00;;;;;;;;;;5060911;28;20031;-79
2021/08/16 13:51:26;;;;;;;4.70;1.83;;;;;;;;;;5080292;28;20061;-79
2021/08/16 13:53:51;;;;;;;7.40;2.72;;;;;;;;;;5063794;28;20398;-80
2021/08/16 13:56:17;;;;;;;6.07;2.70;;;;;;;;;;5062378;28;20062;-79
2021/08/16 13:58:42;;;;;;;5.68;2.30;;;;;;;;;;5063240;28;20040;-80
2021/08/16 14:01:08;;;;;;;8.73;2.90;;;;;;;;;;5088627;28;20053;-80
2021/08/16 14:03:33;;;;;;;5.00;2.13;;;;;;;;;;5102751;28;20532;-80
2021/08/16 14:05:59;;;;;;;6.03;2.70;;;;;;;;;;5102284;28;20386;-79
2021/08/16 14:08:25;;;;;;;5.65;2.30;;;;;;;;;;5104103;28;20036;-78
2021/08/16 14:10:55;;;;;;;4.38;2.10;;;;;;;;;;5099227;28;20032;-79
2021/08/16 14:13:21;;;;;;;4.57;2.40;;;;;;;;;;5065170;28;20105;-79
2021/08/16 14:15:47;;;;;;;5.80;2.45;;;;;;;;;;5093180;28;20067;-79
2021/08/16 14:18:13;;;;;;;4.75;2.25;;;;;;;;;;5062435;28;20082;-79
2021/08/16 14:20:42;;;;;;;3.63;2.35;;;;;;;;;;5079588;28;20044;-79
2021/08/16 14:23:07;;;;;;;4.82;2.40;;;;;;;;;;5078027;28;20097;-80
2021/08/16 14:25:33;;;;;;;7.70;2.90;;;;;;;;;;5078241;28;20044;-80
2021/08/16 14:27:59;;;;;;;5.40;2.60;;;;;;;;;;5062787;28;20037;-81
2021/08/16 14:30:24;;;;;;;4.10;2.58;;;;;;;;;;5062452;28;20520;-80
2021/08/16 14:32:50;;;;;;;6.38;3.17;;;;;;;;;;5061680;28;20041;-80
2021/08/16 14:35:15;;;;;;;12.60;4.75;;;;;;;;;;5062316;28;20034;-80